Time;durP1;ratioP1;P1;durP2;ratioP2;P2;SDS_P1;SDS_P2;PMS_P1;PMS_P2;Temp;Humidity;BMP_temperature;BMP_pressure;BME280_temperature;BME280_humidity;BME280_pressure;Samples;Min_cycle;Max_cycle;Signal;HPM_P1;HPM_P2
2022/05/01 00:00:07;;;;;;;20.30;15.55;;;9.10;99.90;;;;;;6304167;22;20171;-69
2022/05/01 00:02:34;;;;;;;20.58;15.93;;;9.10;99.90;;;;;;6304755;22;20258;-70
2022/05/01 00:05:02;;;;;;;20.13;14.57;;;9.10;99.90;;;;;;6304511;22;20213;-70
2022/05/01 00:07:28;;;;;;;19.60;16.00;;;9.10;99.90;;;;;;6304872;22;20175;-69
2022/05/01 00:09:55;;;;;;;21.52;16.95;;;9.10;99.90;;;;;;6303613;22;20182;-70
2022/05/01 00:12:22;;;;;;;19.63;15.55;;;9.10;99.90;;;;;;6304732;22;20519;-70
2022/05/01 00:14:51;;;;;;;23.80;16.98;;;9.10;99.90;;;;;;6304658;22;20290;-70
2022/05/01 00:17:18;;;;;;;22.45;16.13;;;9.10;99.90;;;;;;6304594;22;20277;-70
2022/05/01 00:19:44;;;;;;;21.20;15.07;;;9.10;99.90;;;;;;6303787;22;20551;-70
2022/05/01 00:22:11;;;;;;;20.85;16.23;;;9.10;99.90;;;;;;6304620;22;20171;-70
2022/05/01 00:24:38;;;;;;;20.98;17.52;;;9.10;99.90;;;;;;6304679;22;20303;-69
2022/05/01 00:27:05;;;;;;;22.98;16.95;;;9.10;99.90;;;;;;6304692;22;20171;-70
2022/05/01 00:29:32;;;;;;;22.88;17.52;;;9.10;99.90;;;;;;6303979;22;20175;-70
2022/05/01 00:32:02;;;;;;;24.00;18.40;;;9.20;99.90;;;;;;6304196;22;20257;-70
2022/05/01 00:37:13;;;;;;;21.65;16.45;;;9.20;99.90;;;;;;6306575;22;20240;-69
2022/05/01 00:39:39;;;;;;;23.05;17.95;;;9.20;99.90;;;;;;6305827;22;20252;-69
2022/05/01 00:42:06;;;;;;;25.45;17.52;;;9.20;99.90;;;;;;6306530;22;20212;-69
2022/05/01 00:44:34;;;;;;;20.38;16.20;;;9.20;99.90;;;;;;6306658;22;20537;-70
2022/05/01 00:47:02;;;;;;;21.73;15.40;;;9.20;99.90;;;;;;6306156;22;20181;-70
2022/05/01 00:49:29;;;;;;;18.88;14.82;;;9.20;99.90;;;;;;6306019;22;20503;-69
2022/05/01 00:51:58;;;;;;;23.80;15.88;;;9.20;99.90;;;;;;6306777;22;20175;-70
2022/05/01 00:54:27;;;;;;;21.50;15.60;;;9.20;99.90;;;;;;6306157;22;20202;-69
2022/05/01 00:56:55;;;;;;;24.83;17.05;;;9.10;99.90;;;;;;6306654;22;20187;-70
2022/05/01 00:59:22;;;;;;;22.95;17.38;;;9.10;99.90;;;;;;6305316;22;20188;-70
2022/05/01 01:01:51;;;;;;;25.05;17.60;;;9.00;99.90;;;;;;6306192;22;20841;-70
2022/05/01 01:04:19;;;;;;;26.55;18.63;;;9.00;99.90;;;;;;6306021;22;20202;-69
2022/05/01 01:06:48;;;;;;;26.30;18.85;;;9.00;99.90;;;;;;6306923;22;20562;-69
2022/05/01 01:09:16;;;;;;;28.98;19.60;;;8.90;99.90;;;;;;6305510;22;20171;-70
2022/05/01 01:11:43;;;;;;;24.98;17.63;;;8.90;99.90;;;;;;6306542;22;20171;-70
2022/05/01 01:14:11;;;;;;;25.40;18.65;;;9.00;99.90;;;;;;6306112;22;20201;-69
2022/05/01 01:16:41;;;;;;;27.00;19.30;;;8.90;99.90;;;;;;6306353;22;20518;-69
2022/05/01 01:19:09;;;;;;;27.38;19.50;;;8.90;99.90;;;;;;6304924;22;20417;-70
2022/05/01 01:21:38;;;;;;;26.50;18.60;;;9.00;99.90;;;;;;6306567;22;20171;-69
2022/05/01 01:24:09;;;;;;;27.15;18.02;;;9.00;99.90;;;;;;6306370;22;20191;-70
2022/05/01 01:26:37;;;;;;;25.42;18.40;;;9.00;99.90;;;;;;6306145;22;20156;-70
2022/05/01 01:31:40;;;;;;;24.48;18.38;;;9.00;99.90;;;;;;6305593;22;20178;-69
2022/05/01 01:31:54;;;;;;;22.85;17.30;;;9.00;99.90;;;;;;6305577;22;20183;-69
2022/05/01 01:34:27;;;;;;;28.23;19.83;;;9.00;99.90;;;;;;6306155;22;20564;-69
2022/05/01 01:36:56;;;;;;;26.23;17.80;;;9.00;99.90;;;;;;6305980;22;20179;-69
2022/05/01 01:39:25;;;;;;;26.50;18.50;;;9.00;99.90;;;;;;6305357;22;20182;-69
2022/05/01 01:41:55;;;;;;;28.00;19.05;;;9.00;99.90;;;;;;6306167;22;20473;-70
2022/05/01 01:44:23;;;;;;;28.52;19.50;;;8.90;99.90;;;;;;6306202;22;20253;-69
2022/05/01 01:46:50;;;;;;;23.83;19.63;;;8.90;99.90;;;;;;6305565;22;20195;-70
2022/05/01 01:49:17;;;;;;;28.63;18.75;;;8.90;99.90;;;;;;6305290;22;20644;-70
2022/05/01 01:51:44;;;;;;;26.88;18.98;;;8.90;99.90;;;;;;6305846;22;20262;-70
2022/05/01 01:54:12;;;;;;;27.13;19.35;;;8.90;99.90;;;;;;6305863;22;20703;-70
2022/05/01 01:56:39;;;;;;;29.77;20.80;;;8.90;99.90;;;;;;6305997;22;20253;-69
2022/05/01 01:59:06;;;;;;;30.40;21.05;;;8.80;99.90;;;;;;6304670;22;20174;-69
2022/05/01 02:01:33;;;;;;;27.23;17.85;;;8.80;99.90;;;;;;6305966;22;20185;-70
2022/05/01 02:04:00;;;;;;;24.55;17.70;;;8.70;99.90;;;;;;6305243;22;20203;-70
2022/05/01 02:06:27;;;;;;;24.38;18.58;;;8.70;99.90;;;;;;6305852;22;20517;-69
2022/05/01 02:08:54;;;;;;;30.55;19.13;;;8.70;99.90;;;;;;6305034;22;20483;-70
2022/05/01 02:11:24;;;;;;;27.75;18.63;;;8.70;99.90;;;;;;6305950;22;20228;-70
2022/05/01 02:13:51;;;;;;;31.65;21.35;;;8.70;99.90;;;;;;6316220;22;20197;-92
2022/05/01 02:16:18;;;;;;;28.52;19.75;;;8.60;99.90;;;;;;6346315;22;20167;-91
2022/05/01 02:18:45;;;;;;;30.05;20.63;;;8.70;99.90;;;;;;6345873;22;20175;-92
2022/05/01 02:23:56;;;;;;;27.65;20.38;;;8.80;99.90;;;;;;6315430;22;20720;-91
2022/05/01 02:26:24;;;;;;;30.13;19.58;;;8.80;99.90;;;;;;6321094;22;20173;-89
2022/05/01 02:28:51;;;;;;;30.15;19.30;;;8.80;99.90;;;;;;6317761;22;20641;-90
2022/05/01 02:31:18;;;;;;;26.90;18.58;;;8.80;99.90;;;;;;6307508;22;20175;-91
2022/05/01 02:33:44;;;;;;;28.33;19.67;;;8.80;99.90;;;;;;6317979;22;20187;-90
2022/05/01 02:36:12;;;;;;;27.95;19.77;;;8.90;99.90;;;;;;6317582;22;20526;-90
2022/05/01 02:38:39;;;;;;;31.02;20.65;;;8.90;99.90;;;;;;6317974;22;20221;-91
2022/05/01 02:41:06;;;;;;;32.55;20.05;;;8.90;99.90;;;;;;6318122;22;20167;-89
2022/05/01 02:43:34;;;;;;;31.27;20.05;;;8.90;99.90;;;;;;6317986;22;20727;-89
2022/05/01 02:46:01;;;;;;;26.92;20.30;;;8.90;99.90;;;;;;6317460;22;20254;-90
2022/05/01 02:48:28;;;;;;;26.45;20.10;;;8.90;99.90;;;;;;6317837;22;20170;-90
2022/05/01 02:50:55;;;;;;;28.27;19.75;;;8.90;99.90;;;;;;6317797;22;20174;-89
2022/05/01 02:53:22;;;;;;;27.95;19.92;;;8.90;99.90;;;;;;6317775;22;20193;-89
2022/05/01 02:55:49;;;;;;;30.40;18.85;;;8.90;99.90;;;;;;6318007;22;20253;-89
2022/05/01 02:58:16;;;;;;;29.00;19.10;;;8.90;99.90;;;;;;6317029;22;20179;-90
2022/05/01 03:00:47;;;;;;;30.38;20.35;;;8.90;99.90;;;;;;6317873;22;20681;-89
2022/05/01 03:03:14;;;;;;;25.95;19.10;;;8.90;99.90;;;;;;6317914;22;20187;-89
2022/05/01 03:05:42;;;;;;;26.77;20.33;;;8.80;99.90;;;;;;6317475;22;20167;-92
2022/05/01 03:08:12;;;;;;;25.02;18.30;;;8.80;99.90;;;;;;6317111;22;20167;-91
2022/05/01 03:10:38;;;;;;;30.33;20.35;;;8.80;99.90;;;;;;6317431;22;20340;-92
2022/05/01 03:13:05;;;;;;;30.45;20.00;;;8.70;99.90;;;;;;6306840;22;20203;-91
2022/05/01 03:15:32;;;;;;;30.92;20.20;;;8.70;99.90;;;;;;6318484;22;20492;-89
2022/05/01 03:23:29;;;;;;;25.50;18.95;;;8.50;99.90;;;;;;6308274;22;20689;-89
2022/05/01 03:25:57;;;;;;;28.85;19.65;;;8.40;99.90;;;;;;6318540;22;20167;-90
2022/05/01 03:28:24;;;;;;;30.05;19.73;;;8.40;99.90;;;;;;6338050;22;20171;-88
2022/05/01 03:30:51;;;;;;;28.65;20.40;;;8.40;99.90;;;;;;6324737;22;20155;-92
2022/05/01 03:33:21;;;;;;;34.58;20.80;;;8.40;99.90;;;;;;6345120;22;20202;-91
2022/05/01 03:35:50;;;;;;;32.08;22.73;;;8.40;99.90;;;;;;6328843;22;20218;-90
2022/05/01 03:38:17;;;;;;;32.45;19.80;;;8.40;99.90;;;;;;6319466;22;20219;-90
2022/05/01 03:40:47;;;;;;;28.38;19.58;;;8.40;99.90;;;;;;6309259;22;20178;-89
2022/05/01 03:43:15;;;;;;;34.78;21.58;;;8.40;99.90;;;;;;6319290;22;20191;-90
2022/05/01 03:45:45;;;;;;;29.38;19.90;;;8.40;99.90;;;;;;6319539;22;20171;-90
2022/05/01 03:48:12;;;;;;;27.95;19.70;;;8.40;99.90;;;;;;6317946;22;20628;-90
2022/05/01 03:50:41;;;;;;;28.08;18.98;;;8.40;99.90;;;;;;6317272;22;20167;-90
2022/05/01 03:53:07;;;;;;;32.97;20.70;;;8.40;99.90;;;;;;6306937;22;20202;-90
2022/05/01 03:55:40;;;;;;;28.10;18.70;;;8.40;99.90;;;;;;6317688;22;20167;-90
2022/05/01 03:58:09;;;;;;;32.55;22.95;;;8.30;99.90;;;;;;6317019;22;20187;-88
2022/05/01 04:00:36;;;;;;;33.40;21.88;;;8.30;99.90;;;;;;6317955;22;20167;-89
2022/05/01 04:03:04;;;;;;;32.15;20.85;;;8.40;99.90;;;;;;6318040;22;20240;-90
2022/05/01 04:05:36;;;;;;;32.97;21.85;;;8.40;99.90;;;;;;6316938;22;20173;-90
2022/05/01 04:08:05;;;;;;;28.00;20.88;;;8.40;99.90;;;;;;6317598;22;20183;-90
2022/05/01 04:10:32;;;;;;;33.47;21.02;;;8.40;99.90;;;;;;6317634;22;20171;-90
2022/05/01 04:13:03;;;;;;;33.78;22.38;;;8.40;99.90;;;;;;6317992;22;20669;-90
2022/05/01 04:15:31;;;;;;;30.02;21.15;;;8.50;99.90;;;;;;6318172;22;20163;-89
2022/05/01 04:17:58;;;;;;;33.22;20.35;;;8.40;99.90;;;;;;6307423;22;20202;-90
2022/05/01 04:20:28;;;;;;;30.65;20.00;;;8.40;99.90;;;;;;6317384;22;20246;-90
2022/05/01 04:22:57;;;;;;;33.08;20.88;;;8.40;99.90;;;;;;6317612;22;20171;-90
2022/05/01 04:25:30;;;;;;;31.27;20.45;;;8.50;99.90;;;;;;6317927;22;20502;-90
2022/05/01 04:27:59;;;;;;;32.55;20.90;;;8.50;99.90;;;;;;6307752;22;20152;-90
2022/05/01 04:30:27;;;;;;;34.03;21.85;;;8.50;99.90;;;;;;6317736;22;20170;-90
2022/05/01 04:32:55;;;;;;;32.65;21.25;;;8.40;99.90;;;;;;6317734;22;20171;-89
2022/05/01 04:35:25;;;;;;;33.45;20.50;;;8.40;99.90;;;;;;6318202;22;20167;-90
2022/05/01 04:37:54;;;;;;;34.38;22.83;;;8.40;99.90;;;;;;6318515;22;20653;-89
2022/05/01 04:40:21;;;;;;;34.95;22.40;;;8.40;99.90;;;;;;6317449;22;20175;-90
2022/05/01 04:42:52;;;;;;;36.50;23.00;;;8.40;99.90;;;;;;6318042;22;20231;-90
2022/05/01 04:45:21;;;;;;;32.97;21.55;;;8.40;99.90;;;;;;6317920;22;20238;-89
2022/05/01 04:47:51;;;;;;;30.42;20.35;;;8.40;99.90;;;;;;6317538;22;20193;-90
2022/05/01 04:50:19;;;;;;;35.03;22.50;;;8.40;99.90;;;;;;6317584;22;20168;-90
2022/05/01 04:52:46;;;;;;;34.42;22.58;;;8.40;99.90;;;;;;6318501;22;20195;-90
2022/05/01 04:55:18;;;;;;;38.90;23.23;;;8.40;99.90;;;;;;6317357;22;20178;-90
2022/05/01 04:57:45;;;;;;;32.42;21.60;;;8.50;99.90;;;;;;6317405;22;20571;-90
2022/05/01 05:00:18;;;;;;;35.95;21.30;;;8.50;99.90;;;;;;6318058;22;20174;-90
2022/05/01 05:02:49;;;;;;;35.65;23.92;;;8.50;99.90;;;;;;6318931;22;20175;-89
2022/05/01 05:05:20;;;;;;;36.53;21.63;;;8.60;99.90;;;;;;6318429;22;20206;-89
2022/05/01 05:07:49;;;;;;;39.60;22.95;;;8.60;99.90;;;;;;6319918;22;20395;-88
2022/05/01 05:10:16;;;;;;;28.30;19.60;;;8.60;99.90;;;;;;6319583;22;20190;-88
2022/05/01 05:12:46;;;;;;;33.97;20.63;;;8.70;99.90;;;;;;6318957;22;20506;-90
2022/05/01 05:15:22;;;;;;;34.22;20.80;;;8.70;99.90;;;;;;6319053;22;20209;-91
2022/05/01 05:17:54;;;;;;;34.28;21.95;;;8.70;99.90;;;;;;6320253;22;20183;-90
2022/05/01 05:20:31;;;;;;;39.20;22.95;;;8.70;99.90;;;;;;6323035;22;20171;-90
2022/05/01 05:22:58;;;;;;;30.25;21.30;;;8.70;99.90;;;;;;6324072;22;20266;-90
2022/05/01 05:25:25;;;;;;;31.05;21.98;;;8.70;99.90;;;;;;6323427;22;20167;-89
2022/05/01 05:27:51;;;;;;;29.58;20.35;;;8.70;99.90;;;;;;6323575;22;20573;-89
2022/05/01 05:30:20;;;;;;;30.02;20.25;;;8.80;99.90;;;;;;6327232;22;20564;-89
2022/05/01 05:32:49;;;;;;;32.63;20.58;;;8.80;99.90;;;;;;6327338;22;20207;-89
2022/05/01 05:35:19;;;;;;;30.08;21.55;;;8.70;99.90;;;;;;6327361;22;20179;-89
2022/05/01 05:37:46;;;;;;;32.70;21.48;;;8.70;99.90;;;;;;6329856;22;20164;-90
2022/05/01 05:40:18;;;;;;;30.30;19.70;;;8.70;99.90;;;;;;6340421;22;20167;-91
2022/05/01 05:42:51;;;;;;;29.73;19.95;;;8.70;99.90;;;;;;6333820;22;20152;-91
2022/05/01 05:45:19;;;;;;;32.00;23.33;;;8.80;99.90;;;;;;6319286;22;20412;-89
2022/05/01 05:47:46;;;;;;;31.67;22.20;;;8.90;99.90;;;;;;6317834;22;20167;-89
2022/05/01 05:50:13;;;;;;;25.90;18.75;;;8.90;99.90;;;;;;6307689;22;20194;-88
2022/05/01 05:52:40;;;;;;;25.60;18.80;;;9.00;99.90;;;;;;6318369;22;20210;-88
2022/05/01 05:55:08;;;;;;;26.00;18.45;;;9.00;99.90;;;;;;6317563;22;20640;-89
2022/05/01 05:57:34;;;;;;;24.77;18.67;;;9.00;99.90;;;;;;6307550;22;20175;-89
2022/05/01 06:00:01;;;;;;;24.48;18.15;;;9.00;99.90;;;;;;6305663;22;20175;-88
2022/05/01 06:02:29;;;;;;;26.85;19.23;;;9.10;99.90;;;;;;6306534;22;20175;-88
2022/05/01 06:04:56;;;;;;;31.52;20.55;;;9.10;99.90;;;;;;6301243;22;20223;-88
2022/05/01 06:07:23;;;;;;;27.90;20.10;;;9.20;99.90;;;;;;6316908;22;20182;-87
2022/05/01 06:09:50;;;;;;;26.83;18.80;;;9.20;99.90;;;;;;6316472;22;20190;-87
2022/05/01 06:12:16;;;;;;;26.08;18.50;;;9.20;99.90;;;;;;6316529;22;20170;-88
2022/05/01 06:14:45;;;;;;;30.50;21.58;;;9.20;99.90;;;;;;6316645;22;20199;-88
2022/05/01 06:17:12;;;;;;;30.48;20.77;;;9.20;99.90;;;;;;6316915;22;20177;-88
2022/05/01 06:19:40;;;;;;;25.10;19.23;;;9.20;99.90;;;;;;6316655;22;20221;-87
2022/05/01 06:22:09;;;;;;;28.30;20.13;;;9.20;99.90;;;;;;6316259;22;20257;-87
2022/05/01 06:24:36;;;;;;;23.98;17.95;;;9.30;99.90;;;;;;6307307;22;20278;-87
2022/05/01 06:27:03;;;;;;;25.85;19.65;;;9.30;99.90;;;;;;6316407;22;20178;-87
2022/05/01 06:29:30;;;;;;;29.83;17.83;;;9.30;99.90;;;;;;6317878;22;20453;-87
2022/05/01 06:31:57;;;;;;;29.60;19.65;;;9.30;99.90;;;;;;6316302;22;20175;-87
2022/05/01 06:34:24;;;;;;;22.02;17.02;;;9.40;99.90;;;;;;6317378;22;20198;-89
2022/05/01 06:36:52;;;;;;;26.05;19.52;;;9.40;99.90;;;;;;6306810;22;20653;-89
2022/05/01 06:39:19;;;;;;;22.77;17.33;;;9.50;99.90;;;;;;6309170;22;20195;-89
2022/05/01 06:41:46;;;;;;;24.98;18.20;;;9.60;99.90;;;;;;6317682;22;20174;-89
2022/05/01 06:44:12;;;;;;;25.23;18.65;;;9.60;99.90;;;;;;6307984;22;20225;-90
2022/05/01 06:46:41;;;;;;;25.05;18.25;;;9.60;99.90;;;;;;6318129;22;20229;-90
2022/05/01 06:49:08;;;;;;;26.92;18.23;;;9.60;99.90;;;;;;6316228;22;20167;-89
2022/05/01 06:51:35;;;;;;;24.98;17.70;;;9.70;99.90;;;;;;6316509;22;20178;-89
2022/05/01 06:54:07;;;;;;;26.52;19.17;;;9.60;99.90;;;;;;6316432;22;20211;-89
2022/05/01 06:56:34;;;;;;;23.98;16.90;;;9.70;99.90;;;;;;6308409;22;20160;-89
2022/05/01 06:59:01;;;;;;;26.17;18.23;;;9.80;99.90;;;;;;6336797;22;20198;-89
2022/05/01 07:01:28;;;;;;;24.85;17.17;;;9.80;99.90;;;;;;6324817;22;20167;-89
2022/05/01 07:03:54;;;;;;;24.67;17.65;;;10.00;99.90;;;;;;6306416;22;20202;-88
2022/05/01 07:06:21;;;;;;;25.45;17.60;;;10.00;99.90;;;;;;6317971;22;20186;-88
2022/05/01 07:08:48;;;;;;;23.23;17.05;;;10.00;99.90;;;;;;6306171;22;20266;-89
2022/05/01 07:11:16;;;;;;;22.05;16.92;;;10.00;99.90;;;;;;6307226;22;20179;-88
2022/05/01 07:13:43;;;;;;;24.02;18.75;;;10.10;99.90;;;;;;6306622;22;20199;-89
2022/05/01 07:16:09;;;;;;;21.92;16.67;;;10.10;99.90;;;;;;6307108;22;20179;-88
2022/05/01 07:18:36;;;;;;;24.73;17.85;;;10.20;99.90;;;;;;6316804;22;20534;-89
2022/05/01 07:21:03;;;;;;;20.88;16.45;;;10.30;99.90;;;;;;6316870;22;20184;-90
2022/05/01 07:23:30;;;;;;;22.38;16.35;;;10.30;99.90;;;;;;6307547;22;20195;-89
2022/05/01 07:25:57;;;;;;;27.77;17.73;;;10.30;99.90;;;;;;6316425;22;20171;-89
2022/05/01 07:28:25;;;;;;;27.40;16.77;;;10.40;99.90;;;;;;6306143;22;20175;-88
2022/05/01 07:30:52;;;;;;;24.23;17.80;;;10.40;99.90;;;;;;6316304;22;20171;-89
2022/05/01 07:33:19;;;;;;;21.85;16.73;;;10.40;99.90;;;;;;6306845;22;20195;-90
2022/05/01 07:35:46;;;;;;;24.20;19.15;;;10.40;99.90;;;;;;6306954;22;20178;-90
2022/05/01 07:38:13;;;;;;;22.92;16.92;;;10.40;99.90;;;;;;6306034;22;20574;-90
2022/05/01 07:40:40;;;;;;;20.55;16.75;;;10.50;99.90;;;;;;6317777;22;20179;-89
2022/05/01 07:43:06;;;;;;;22.98;17.73;;;10.70;99.90;;;;;;6317937;22;20203;-89
2022/05/01 07:45:34;;;;;;;19.90;16.45;;;10.80;99.90;;;;;;6306937;22;20183;-89
2022/05/01 07:48:01;;;;;;;25.25;18.75;;;10.80;99.90;;;;;;6306643;22;20183;-87
2022/05/01 07:50:29;;;;;;;23.33;16.30;;;10.90;99.90;;;;;;6316919;22;20170;-89
2022/05/01 07:52:56;;;;;;;21.83;16.77;;;10.90;99.90;;;;;;6306625;22;20190;-91
2022/05/01 07:55:30;;;;;;;19.92;16.58;;;11.00;99.90;;;;;;6307242;22;20175;-89
2022/05/01 07:57:57;;;;;;;19.80;15.50;;;11.10;99.90;;;;;;6317471;22;20212;-89
2022/05/01 08:00:24;;;;;;;18.20;14.40;;;11.30;99.90;;;;;;6318772;22;20187;-89
2022/05/01 08:05:37;;;;;;;18.50;13.10;;;11.40;99.90;;;;;;6317677;22;20259;-88
2022/05/01 08:08:04;;;;;;;16.80;12.20;;;11.50;99.90;;;;;;6315674;22;20175;-88
2022/05/01 08:10:32;;;;;;;17.30;13.50;;;11.60;99.90;;;;;;6305772;22;20190;-88
2022/05/01 08:12:59;;;;;;;15.63;14.02;;;11.60;99.90;;;;;;6305217;22;20195;-88
2022/05/01 08:15:26;;;;;;;17.98;13.65;;;11.80;99.90;;;;;;6304837;22;20195;-67
2022/05/01 08:17:54;;;;;;;19.33;14.33;;;11.90;99.90;;;;;;6302428;22;20675;-67
2022/05/01 08:23:06;;;;;;;14.13;12.03;;;11.90;99.90;;;;;;6303134;22;20893;-68
2022/05/01 08:25:33;;;;;;;13.00;11.60;;;12.00;99.90;;;;;;6303303;22;20787;-68
2022/05/01 08:27:59;;;;;;;13.93;11.70;;;12.10;99.90;;;;;;6302448;22;20811;-67
2022/05/01 08:30:27;;;;;;;15.03;13.07;;;12.30;99.90;;;;;;6302996;22;20424;-67
2022/05/01 08:32:55;;;;;;;16.70;12.20;;;12.40;99.90;;;;;;6302709;22;20425;-68
2022/05/01 08:35:21;;;;;;;14.97;12.00;;;12.50;99.90;;;;;;6302809;22;20448;-68
2022/05/01 08:37:48;;;;;;;16.13;12.50;;;12.70;99.90;;;;;;6302564;22;20425;-68
2022/05/01 08:40:15;;;;;;;14.70;13.20;;;12.60;99.90;;;;;;6302120;22;20445;-68
2022/05/01 08:42:44;;;;;;;13.13;11.70;;;12.40;99.90;;;;;;6302785;22;20471;-68
2022/05/01 08:45:15;;;;;;;15.88;11.43;;;12.30;99.90;;;;;;6302905;22;20441;-67
2022/05/01 08:47:50;;;;;;;15.67;11.60;;;12.30;99.90;;;;;;6302564;22;20567;-68
2022/05/01 08:50:19;;;;;;;14.45;12.10;;;12.40;99.90;;;;;;6302507;22;20424;-68
2022/05/01 08:52:48;;;;;;;14.60;12.40;;;12.50;99.90;;;;;;6302498;22;20186;-68
2022/05/01 08:55:15;;;;;;;14.30;10.80;;;12.60;99.90;;;;;;6303049;22;21174;-68
2022/05/01 08:57:42;;;;;;;14.17;12.50;;;12.70;99.90;;;;;;6304591;22;20772;-66
2022/05/01 09:00:10;;;;;;;16.00;13.43;;;12.70;99.90;;;;;;6304694;22;20468;-68
2022/05/01 09:02:37;;;;;;;15.90;12.80;;;12.50;99.90;;;;;;6304683;22;20428;-68
2022/05/01 09:05:05;;;;;;;15.38;12.35;;;12.40;99.90;;;;;;6304547;22;20746;-68
2022/05/01 09:07:33;;;;;;;11.90;10.63;;;12.60;99.90;;;;;;6304811;22;20175;-67
2022/05/01 09:10:00;;;;;;;13.70;11.33;;;13.00;99.90;;;;;;6303770;22;20918;-68
2022/05/01 09:15:11;;;;;;;13.03;11.30;;;13.70;99.90;;;;;;6315055;22;20439;-66
2022/05/01 09:17:38;;;;;;;13.93;12.00;;;14.10;99.90;;;;;;6304569;22;20496;-66
2022/05/01 09:20:07;;;;;;;15.67;12.20;;;14.30;99.90;;;;;;6304285;22;20448;-66
2022/05/01 09:22:50;;;;;;;13.83;11.97;;;14.30;99.90;;;;;;6304425;22;20425;-67
2022/05/01 09:25:19;;;;;;;13.07;11.07;;;14.40;99.90;;;;;;6304748;22;20519;-68
2022/05/01 09:27:46;;;;;;;11.80;10.60;;;14.20;99.90;;;;;;6304465;22;20417;-68
2022/05/01 09:30:15;;;;;;;12.33;10.20;;;14.10;99.90;;;;;;6304107;22;20428;-68
2022/05/01 09:32:43;;;;;;;12.87;11.10;;;14.20;99.90;;;;;;6304600;22;20444;-68
2022/05/01 09:35:15;;;;;;;14.70;10.20;;;14.20;99.90;;;;;;6304481;22;20461;-68
2022/05/01 09:37:42;;;;;;;13.07;10.47;;;14.20;99.90;;;;;;6314607;22;20423;-65
2022/05/01 09:40:13;;;;;;;14.20;11.20;;;14.20;99.90;;;;;;6303779;22;20973;-67
2022/05/01 09:42:40;;;;;;;16.33;11.90;;;14.20;99.90;;;;;;6304677;22;20456;-67
2022/05/01 09:45:09;;;;;;;13.10;11.70;;;14.20;99.90;;;;;;6304155;22;20440;-68
2022/05/01 09:47:37;;;;;;;14.20;11.60;;;14.20;99.90;;;;;;6304602;22;20760;-68
2022/05/01 09:50:05;;;;;;;12.27;9.93;;;14.00;99.90;;;;;;6304055;22;20445;-67
2022/05/01 09:52:59;;;;;;;11.33;10.13;;;14.00;99.90;;;;;;6304229;22;20500;-68
2022/05/01 09:55:29;;;;;;;14.00;12.00;;;14.20;99.90;;;;;;6304214;22;20441;-68
2022/05/01 09:58:10;;;;;;;11.77;10.17;;;14.20;99.90;;;;;;6304110;22;20421;-66
2022/05/01 10:00:42;;;;;;;13.90;10.90;;;14.40;99.90;;;;;;6303683;22;20441;-67
2022/05/01 10:03:27;;;;;;;12.87;10.27;;;14.60;99.90;;;;;;6299027;22;20429;-67
2022/05/01 10:05:57;;;;;;;12.03;9.90;;;15.00;99.90;;;;;;6304005;22;20425;-68
2022/05/01 10:08:24;;;;;;;13.17;11.67;;;15.20;99.90;;;;;;6302270;22;20425;-67
2022/05/01 10:10:55;;;;;;;13.07;10.63;;;15.60;99.90;;;;;;6301962;22;20479;-68
2022/05/01 10:13:24;;;;;;;11.53;10.37;;;16.90;99.90;;;;;;6304257;22;20425;-67
2022/05/01 10:15:52;;;;;;;13.17;11.80;;;18.30;98.60;;;;;;6304099;22;20436;-68
2022/05/01 10:18:19;;;;;;;11.77;10.00;;;18.90;96.30;;;;;;6303127;22;20425;-68
2022/05/01 10:20:46;;;;;;;12.30;10.53;;;19.30;96.60;;;;;;6303822;22;20441;-69
2022/05/01 10:23:13;;;;;;;10.57;9.50;;;19.20;95.80;;;;;;6303744;22;20769;-68
2022/05/01 10:25:48;;;;;;;14.80;9.80;;;19.10;95.40;;;;;;6304163;22;20445;-69
2022/05/01 10:28:30;;;;;;;12.60;11.30;;;19.60;95.70;;;;;;6302995;22;20423;-69
2022/05/01 10:34:09;;;;;;;10.23;9.13;;;19.20;93.10;;;;;;6303815;22;20440;-69
2022/05/01 10:37:09;;;;;;;12.30;10.00;;;18.60;91.70;;;;;;6304087;22;20428;-68
2022/05/01 10:39:40;;;;;;;11.60;9.80;;;18.60;93.90;;;;;;6302995;22;20452;-68
2022/05/01 10:42:08;;;;;;;13.57;8.93;;;18.00;93.30;;;;;;6303101;22;20930;-68
2022/05/01 10:44:38;;;;;;;11.80;10.60;;;17.60;94.20;;;;;;6303992;22;20433;-68
2022/05/01 10:47:08;;;;;;;12.30;9.47;;;17.50;95.00;;;;;;6303178;22;20431;-68
2022/05/01 10:49:37;;;;;;;12.60;10.40;;;17.70;95.40;;;;;;6303024;22;20418;-69
2022/05/01 10:52:18;;;;;;;14.13;9.60;;;18.20;93.80;;;;;;6303168;22;20421;-67
2022/05/01 10:54:56;;;;;;;10.57;9.30;;;18.00;93.50;;;;;;6303806;22;20889;-68
2022/05/01 10:57:24;;;;;;;11.30;10.20;;;17.90;94.10;;;;;;6303129;22;20425;-68
2022/05/01 11:00:04;;;;;;;12.00;9.70;;;17.80;93.90;;;;;;6302658;22;20480;-68
2022/05/01 11:02:35;;;;;;;15.87;8.40;;;17.90;93.00;;;;;;6303510;22;20421;-67
2022/05/01 11:05:04;;;;;;;8.33;7.40;;;17.70;93.00;;;;;;6303073;22;20461;-67
2022/05/01 11:07:34;;;;;;;8.90;8.03;;;17.80;92.80;;;;;;6303641;22;20421;-67
2022/05/01 11:10:01;;;;;;;9.53;8.60;;;17.60;92.00;;;;;;6302770;22;20500;-67
2022/05/01 11:12:31;;;;;;;11.53;10.33;;;17.60;93.30;;;;;;6302624;22;20508;-67
2022/05/01 11:15:01;;;;;;;10.53;9.47;;;17.70;95.20;;;;;;6303283;22;20499;-68
2022/05/01 11:17:55;;;;;;;12.33;9.53;;;17.70;94.80;;;;;;6302592;22;20422;-66
2022/05/01 11:20:30;;;;;;;10.70;8.90;;;17.70;94.10;;;;;;6302230;22;20448;-68
2022/05/01 11:22:57;;;;;;;9.80;8.30;;;17.90;94.80;;;;;;6302870;22;20417;-69
2022/05/01 11:25:32;;;;;;;9.60;8.27;;;17.90;94.40;;;;;;6302399;22;20441;-69
2022/05/01 11:27:59;;;;;;;10.17;8.70;;;18.30;93.70;;;;;;6302541;22;20425;-69
2022/05/01 11:30:38;;;;;;;8.50;7.60;;;18.70;92.20;;;;;;6302753;22;20422;-68
2022/05/01 11:33:08;;;;;;;9.60;8.37;;;19.20;93.10;;;;;;6302713;22;20425;-68
2022/05/01 11:35:54;;;;;;;10.07;8.60;;;20.10;92.40;;;;;;6303011;22;20471;-69
2022/05/01 11:38:23;;;;;;;8.93;8.00;;;20.20;91.70;;;;;;6301761;22;20425;-69
2022/05/01 11:40:57;;;;;;;9.83;8.83;;;20.70;91.90;;;;;;6302748;22;20480;-69
2022/05/01 11:43:28;;;;;;;9.80;8.47;;;21.70;91.00;;;;;;6301110;22;20424;-69
2022/05/01 11:45:56;;;;;;;7.90;7.10;;;21.80;87.50;;;;;;6302387;22;20582;-67
2022/05/01 11:48:24;;;;;;;9.40;7.53;;;21.50;89.70;;;;;;6301703;22;20421;-65
2022/05/01 11:50:52;;;;;;;7.10;6.40;;;21.40;91.00;;;;;;6302327;22;20417;-67
2022/05/01 11:53:22;;;;;;;7.90;7.20;;;22.10;91.50;;;;;;6302132;22;20421;-67
2022/05/01 12:04:29;;;;;;;8.73;7.80;;;22.10;84.30;;;;;;6301399;22;20517;-66
2022/05/01 12:07:00;;;;;;;9.00;7.37;;;20.90;86.50;;;;;;6302153;22;20453;-67
2022/05/01 12:09:28;;;;;;;8.97;8.07;;;20.20;87.80;;;;;;6301304;22;20432;-66
2022/05/01 12:11:55;;;;;;;8.10;7.30;;;19.40;88.50;;;;;;6301818;22;20603;-67
2022/05/01 12:14:23;;;;;;;7.70;7.00;;;18.90;90.90;;;;;;6301706;22;20434;-67
2022/05/01 12:16:52;;;;;;;8.23;7.23;;;18.60;91.20;;;;;;6300784;22;20425;-67
2022/05/01 12:19:20;;;;;;;9.37;8.33;;;18.30;90.90;;;;;;6301910;22;20983;-68
2022/05/01 12:21:46;;;;;;;11.13;8.40;;;18.00;90.30;;;;;;6301870;22;20813;-66
2022/05/01 12:24:13;;;;;;;9.13;8.17;;;17.80;91.00;;;;;;6301922;22;20444;-66
2022/05/01 12:26:49;;;;;;;13.57;8.63;;;17.60;91.70;;;;;;6302285;22;20456;-67
2022/05/01 12:29:16;;;;;;;9.13;8.23;;;17.60;91.60;;;;;;6301577;22;20441;-67
2022/05/01 12:32:07;;;;;;;8.87;7.93;;;17.70;92.30;;;;;;6301519;22;20421;-67
2022/05/01 12:34:36;;;;;;;8.93;8.03;;;17.70;91.80;;;;;;6301869;22;20449;-66
2022/05/01 12:37:05;;;;;;;10.37;8.53;;;17.50;90.70;;;;;;6302576;22;20417;-67
2022/05/01 12:39:33;;;;;;;8.20;7.40;;;17.40;91.30;;;;;;6301105;22;20425;-67
2022/05/01 12:45:14;;;;;;;8.33;7.50;;;17.40;92.70;;;;;;6301778;22;20601;-69
2022/05/01 12:47:43;;;;;;;8.23;7.40;;;17.60;92.20;;;;;;6312209;22;20964;-69
2022/05/01 12:50:24;;;;;;;8.80;7.90;;;17.60;92.60;;;;;;6301905;22;20425;-67
2022/05/01 12:52:53;;;;;;;8.40;7.47;;;17.50;91.00;;;;;;6302005;22;20918;-66
2022/05/01 12:55:22;;;;;;;8.00;6.57;;;17.50;91.20;;;;;;6301664;22;20476;-65
2022/05/01 12:57:55;;;;;;;8.83;7.93;;;17.60;92.20;;;;;;6301995;22;21062;-67
2022/05/01 13:00:36;;;;;;;8.27;7.50;;;17.70;91.70;;;;;;6301406;22;20532;-68
2022/05/01 13:03:19;;;;;;;7.93;6.93;;;17.70;91.60;;;;;;6301770;22;21212;-67
2022/05/01 13:06:00;;;;;;;8.43;7.43;;;17.70;91.80;;;;;;6301899;22;20448;-68
2022/05/01 13:08:27;;;;;;;8.13;7.30;;;17.70;91.90;;;;;;6301205;22;20433;-67
2022/05/01 13:11:23;;;;;;;7.87;7.17;;;17.70;92.20;;;;;;6302627;22;20807;-66
2022/05/01 13:13:52;;;;;;;6.50;5.90;;;18.20;91.70;;;;;;6302073;22;20770;-66
2022/05/01 13:16:22;;;;;;;7.63;6.80;;;18.50;92.50;;;;;;6301870;22;20483;-68
2022/05/01 13:18:52;;;;;;;7.17;6.47;;;18.70;91.20;;;;;;6301339;22;20421;-68